createdAt,value
2023-04-25T00:01:30.690Z,3.63
2023-04-25T00:03:59.419Z,2.77
2023-04-25T00:06:28.289Z,3.23
2023-04-25T00:08:57.579Z,2.63
2023-04-25T00:11:26.227Z,3.27
2023-04-25T00:13:55.381Z,2.47
2023-04-25T00:16:24.907Z,2.43
2023-04-25T00:18:54.876Z,3.63
2023-04-25T00:21:25.366Z,1.93
2023-04-25T00:23:54.817Z,2.33
2023-04-25T00:26:23.481Z,3.53
2023-04-25T00:28:52.077Z,3.43
2023-04-25T00:31:20.779Z,1.97
2023-04-25T00:33:50.018Z,3.43
2023-04-25T00:36:20.153Z,1.90
2023-04-25T00:38:48.730Z,2.07
2023-04-25T00:41:17.463Z,3.90
2023-04-25T00:43:46.594Z,2.33
2023-04-25T00:46:15.356Z,4.33
2023-04-25T00:48:44.002Z,4.13
2023-04-25T00:51:16.053Z,4.77
2023-04-25T00:53:46.513Z,2.60
2023-04-25T00:56:15.324Z,2.17
2023-04-25T00:58:44.317Z,2.20
2023-04-25T01:01:13.701Z,2.60
2023-04-25T01:03:42.786Z,2.37
2023-04-25T01:06:12.681Z,4.03
2023-04-25T01:08:41.393Z,4.03
2023-04-25T01:11:11.408Z,3.53
2023-04-25T01:13:40.072Z,2.77
2023-04-25T01:16:08.978Z,3.30
2023-04-25T01:18:38.399Z,6.20
2023-04-25T01:21:11.028Z,3.10
2023-04-25T01:23:40.963Z,3.10
2023-04-25T01:26:11.191Z,2.50
2023-04-25T01:28:41.978Z,3.77
2023-04-25T01:31:10.906Z,2.90
2023-04-25T01:33:39.673Z,5.70
2023-04-25T01:36:10.081Z,4.27
2023-04-25T01:38:38.723Z,3.53
2023-04-25T01:41:07.471Z,6.03
2023-04-25T01:43:36.477Z,4.70
2023-04-25T01:46:05.127Z,3.07
2023-04-25T01:48:33.886Z,3.37
2023-04-25T01:51:02.474Z,2.20
2023-04-25T01:53:32.483Z,3.50
2023-04-25T01:56:01.091Z,4.03
2023-04-25T01:58:29.645Z,4.87
2023-04-25T02:00:58.292Z,5.40
2023-04-25T02:03:28.027Z,2.60
2023-04-25T02:05:56.802Z,3.63
2023-04-25T02:08:26.954Z,2.77
2023-04-25T02:10:56.878Z,2.13
2023-04-25T02:13:25.450Z,6.53
2023-04-25T02:15:54.169Z,2.70
2023-04-25T02:18:22.849Z,5.00
2023-04-25T02:20:51.482Z,5.33
2023-04-25T02:23:20.705Z,6.40
2023-04-25T02:25:49.505Z,5.00
2023-04-25T02:28:19.439Z,3.33
2023-04-25T02:30:48.055Z,2.27
2023-04-25T02:33:17.909Z,3.60
2023-04-25T02:35:46.583Z,2.50
2023-04-25T02:38:15.561Z,1.73
2023-04-25T02:40:44.214Z,2.77
2023-04-25T02:43:12.784Z,2.37
2023-04-25T02:45:42.747Z,4.17
2023-04-25T02:48:11.390Z,2.17
2023-04-25T02:50:40.096Z,2.43
2023-04-25T02:53:08.771Z,1.83
2023-04-25T02:55:37.404Z,2.47
2023-04-25T02:58:06.763Z,2.03
2023-04-25T03:00:35.417Z,4.03
2023-04-25T03:03:05.450Z,3.03
2023-04-25T03:05:34.158Z,2.03
2023-04-25T03:08:02.738Z,2.00
2023-04-25T03:10:31.358Z,2.23
2023-04-25T03:12:59.918Z,2.30
2023-04-25T03:15:28.631Z,1.50
2023-04-25T03:17:57.316Z,2.10
2023-04-25T03:20:27.356Z,1.63
2023-04-25T03:22:56.040Z,2.60
2023-04-25T03:25:24.716Z,3.20
2023-04-25T03:27:53.290Z,3.63
2023-04-25T03:30:21.859Z,4.80
2023-04-25T03:32:50.699Z,3.00
2023-04-25T03:35:19.558Z,4.13
2023-04-25T03:37:49.523Z,4.43
2023-04-25T03:40:18.163Z,1.73
2023-04-25T03:42:46.816Z,2.60
2023-04-25T03:45:15.406Z,2.03
2023-04-25T03:47:44.036Z,2.23
2023-04-25T03:50:12.780Z,2.13
2023-04-25T03:52:41.344Z,1.87
2023-04-25T03:55:11.817Z,1.60
2023-04-25T03:57:40.445Z,3.83
2023-04-25T04:00:10.824Z,2.33
2023-04-25T04:02:40.968Z,2.30
2023-04-25T04:05:10.980Z,3.37
2023-04-25T04:07:41.192Z,2.20
2023-04-25T04:10:11.870Z,3.90
2023-04-25T04:12:40.880Z,1.80
2023-04-25T04:15:10.806Z,3.63
2023-04-25T04:17:39.616Z,3.63
2023-04-25T04:20:09.682Z,3.13
2023-04-25T04:22:38.356Z,6.70
2023-04-25T04:25:08.068Z,5.10
2023-04-25T04:27:38.015Z,2.53
2023-04-25T04:30:08.240Z,3.93
2023-04-25T04:32:37.439Z,2.70
2023-04-25T04:35:07.552Z,4.77
2023-04-25T04:37:36.217Z,3.03
2023-04-25T04:40:06.222Z,2.90
2023-04-25T04:42:34.896Z,2.30
2023-04-25T04:45:05.820Z,5.87
2023-04-25T04:47:34.953Z,3.63
2023-04-25T04:50:03.626Z,4.23
2023-04-25T04:52:32.398Z,4.50
2023-04-25T04:55:01.017Z,5.23
2023-04-25T04:57:30.706Z,3.47
2023-04-25T04:59:59.328Z,2.33
2023-04-25T05:02:29.512Z,2.27
2023-04-25T05:04:58.723Z,5.13
2023-04-25T05:07:27.372Z,2.10
2023-04-25T05:09:56.010Z,2.93
2023-04-25T05:12:24.697Z,5.80
2023-04-25T05:14:53.368Z,3.23
2023-04-25T05:17:22.093Z,5.70
2023-04-25T05:19:52.166Z,6.07
2023-04-25T05:22:20.820Z,4.20
2023-04-25T05:24:49.832Z,5.93
2023-04-25T05:27:18.787Z,4.37
2023-04-25T05:29:47.468Z,2.50
2023-04-25T05:32:16.345Z,3.20
2023-04-25T05:34:45.335Z,2.23
2023-04-25T05:37:15.403Z,2.87
2023-04-25T05:39:43.998Z,5.97
2023-04-25T05:42:12.623Z,2.60
2023-04-25T05:44:41.490Z,4.50
2023-04-25T05:47:10.170Z,10.23
2023-04-25T05:49:38.750Z,2.33
2023-04-25T05:52:07.427Z,5.90
2023-04-25T05:54:37.396Z,3.60
2023-04-25T05:57:06.059Z,3.60
2023-04-25T05:59:34.658Z,6.03
2023-04-25T06:02:03.337Z,6.37
2023-04-25T06:04:32.176Z,6.80
2023-04-25T06:07:00.879Z,5.47
2023-04-25T06:09:29.481Z,4.80
2023-04-25T06:11:59.449Z,5.13
2023-04-25T06:14:29.644Z,4.00
2023-04-25T06:16:58.530Z,2.70
2023-04-25T06:19:27.142Z,2.83
2023-04-25T06:21:55.853Z,3.90
2023-04-25T06:24:24.550Z,5.40
2023-04-25T06:26:53.668Z,2.70
2023-04-25T06:29:24.474Z,2.50
2023-04-25T06:31:53.445Z,3.90
2023-04-25T06:34:22.127Z,4.80
2023-04-25T06:36:50.754Z,4.43
2023-04-25T06:39:21.056Z,1.90
2023-04-25T06:41:49.724Z,2.90
2023-04-25T06:44:18.375Z,2.10
2023-04-25T06:46:48.341Z,2.53
2023-04-25T06:49:16.956Z,4.27
2023-04-25T06:51:45.582Z,2.50
2023-04-25T06:54:14.287Z,2.50
2023-04-25T06:56:43.113Z,5.13
2023-04-25T06:59:11.722Z,2.87
2023-04-25T07:01:41.218Z,3.40
2023-04-25T07:04:11.419Z,2.23
2023-04-25T07:06:43.603Z,4.37
2023-04-25T07:09:12.387Z,3.93
2023-04-25T07:11:41.089Z,4.00
2023-04-25T07:14:09.726Z,2.67
2023-04-25T07:16:38.591Z,2.70
2023-04-25T07:19:07.308Z,6.50
2023-04-25T07:21:37.617Z,2.63
2023-04-25T07:24:07.172Z,1.83
2023-04-25T07:26:35.797Z,4.50
2023-04-25T07:29:04.455Z,2.37
2023-04-25T07:31:33.236Z,2.47
2023-04-25T07:34:02.276Z,2.80
2023-04-25T07:36:31.926Z,2.70
2023-04-25T07:39:01.953Z,2.10
2023-04-25T07:41:30.831Z,2.40
2023-04-25T07:43:59.414Z,5.10
2023-04-25T07:46:28.165Z,3.50
2023-04-25T07:48:56.915Z,3.20
2023-04-25T07:51:25.549Z,2.87
2023-04-25T07:53:54.168Z,2.73
2023-04-25T07:56:24.103Z,2.67
2023-04-25T07:58:53.061Z,3.23
2023-04-25T08:01:22.680Z,2.50
2023-04-25T08:03:51.541Z,2.23
2023-04-25T08:06:20.456Z,4.63
2023-04-25T08:08:49.551Z,3.70
2023-04-25T08:11:18.450Z,3.73
2023-04-25T08:13:48.443Z,3.77
2023-04-25T08:16:17.127Z,3.17
2023-04-25T08:18:45.815Z,4.60
2023-04-25T08:21:14.923Z,3.97
2023-04-25T08:23:43.608Z,6.57
2023-04-25T08:26:12.277Z,5.60
2023-04-25T08:28:40.869Z,4.90
2023-04-25T08:31:11.469Z,5.97
2023-04-25T08:33:40.172Z,4.00
2023-04-25T08:36:09.134Z,7.57
2023-04-25T08:38:38.273Z,4.47
2023-04-25T08:41:07.512Z,5.00
2023-04-25T08:43:39.130Z,4.47
2023-04-25T08:46:08.000Z,5.50
2023-04-25T08:48:38.233Z,5.47
2023-04-25T08:53:38.942Z,5.13
2023-04-25T08:56:10.243Z,5.40
2023-04-25T08:58:39.193Z,5.70
2023-04-25T09:01:08.300Z,4.20
2023-04-25T09:03:38.815Z,6.50
2023-04-25T09:06:07.658Z,5.20
2023-04-25T09:08:38.583Z,6.97
2023-04-25T09:11:07.256Z,5.33
2023-04-25T09:13:36.314Z,4.83
2023-04-25T09:16:05.047Z,4.53
2023-04-25T09:18:34.734Z,7.93
2023-04-25T09:21:14.195Z,6.43
2023-04-25T09:23:46.200Z,5.47
2023-04-25T09:26:16.782Z,15.53
2023-04-25T09:28:46.745Z,6.10
2023-04-25T09:31:24.230Z,5.80
2023-04-25T09:34:01.124Z,6.00
2023-04-25T09:36:32.682Z,5.83
2023-04-25T09:39:01.918Z,7.23
2023-04-25T09:41:30.556Z,5.60
2023-04-25T09:43:59.473Z,7.00
2023-04-25T09:46:35.823Z,6.63
2023-04-25T09:49:08.531Z,5.13
2023-04-25T09:51:38.546Z,6.27
2023-04-25T09:54:07.374Z,5.63
2023-04-25T09:56:38.186Z,5.53
2023-04-25T09:59:07.902Z,5.77
2023-04-25T10:01:36.920Z,5.77
2023-04-25T10:04:08.497Z,6.47
2023-04-25T10:06:40.003Z,7.60
2023-04-25T10:09:09.464Z,11.97
2023-04-25T10:11:39.099Z,5.60
2023-04-25T10:14:08.402Z,10.17
2023-04-25T10:16:38.282Z,5.80
2023-04-25T10:19:07.084Z,4.27
2023-04-25T10:21:36.071Z,6.20
2023-04-25T10:24:06.877Z,3.87
2023-04-25T10:26:35.514Z,9.93
2023-04-25T10:29:05.465Z,3.33
2023-04-25T10:31:34.396Z,3.30
2023-04-25T10:34:03.079Z,4.37
2023-04-25T10:36:33.940Z,2.60
2023-04-25T10:39:08.386Z,3.30
2023-04-25T10:41:48.488Z,2.40
2023-04-25T10:44:17.397Z,2.80
2023-04-25T10:46:47.276Z,3.87
2023-04-25T10:49:31.613Z,2.30
2023-04-25T10:52:17.416Z,2.00
2023-04-25T10:54:52.210Z,2.83
2023-04-25T10:57:44.288Z,3.60
2023-04-25T11:00:16.204Z,4.70
2023-04-25T11:02:48.065Z,1.50
2023-04-25T11:05:24.913Z,1.83
2023-04-25T11:10:46.435Z,1.53
2023-04-25T11:13:15.537Z,2.10
2023-04-25T11:14:38.038Z,2.37
2023-04-25T11:15:44.336Z,1.70
2023-04-25T11:18:18.075Z,2.20
2023-04-25T11:20:47.112Z,2.80
2023-04-25T11:23:16.212Z,3.03
2023-04-25T11:25:46.414Z,3.63
2023-04-25T11:28:15.046Z,3.20
2023-04-25T11:30:50.225Z,3.30
2023-04-25T11:33:19.004Z,1.97
2023-04-25T11:35:47.697Z,1.87
2023-04-25T11:38:16.334Z,1.47
2023-04-25T11:40:46.375Z,1.50
2023-04-25T11:43:15.117Z,1.40
2023-04-25T11:45:43.877Z,1.20
2023-04-25T11:48:12.630Z,1.83
2023-04-25T11:50:41.527Z,1.50
2023-04-25T11:53:10.174Z,1.30
2023-04-25T11:55:39.119Z,1.77
2023-04-25T11:58:09.587Z,1.37
2023-04-25T12:00:38.322Z,2.00
2023-04-25T12:03:07.025Z,2.17
2023-04-25T12:05:36.052Z,2.10
2023-04-25T12:08:15.309Z,2.13
2023-04-25T12:10:46.259Z,5.63
2023-04-25T12:13:24.077Z,2.70
2023-04-25T12:15:53.052Z,2.10
2023-04-25T12:18:22.912Z,2.50
2023-04-25T12:20:51.701Z,1.90
2023-04-25T12:23:27.423Z,2.30
2023-04-25T12:25:56.904Z,2.40
2023-04-25T12:28:28.528Z,4.10
2023-04-25T12:30:59.436Z,2.50
2023-04-25T12:33:28.968Z,2.53
2023-04-25T12:35:58.424Z,3.93
2023-04-25T12:38:28.205Z,5.00
2023-04-25T12:40:56.822Z,2.53
2023-04-25T12:43:26.908Z,4.10
2023-04-25T12:45:57.019Z,5.40
2023-04-25T12:48:26.007Z,3.53
2023-04-25T12:50:54.681Z,4.10
2023-04-25T12:53:25.162Z,4.40
2023-04-25T12:58:28.710Z,6.73
2023-04-25T13:00:57.356Z,4.80
2023-04-25T13:03:26.626Z,5.63
2023-04-25T13:05:55.506Z,4.43
2023-04-25T13:08:24.189Z,4.70
2023-04-25T13:10:52.890Z,6.90
2023-04-25T13:13:21.536Z,4.60
2023-04-25T13:15:51.781Z,6.10
2023-04-25T13:18:21.048Z,4.73
2023-04-25T13:20:49.732Z,6.17
2023-04-25T13:23:18.368Z,5.50
2023-04-25T13:25:47.076Z,5.80
2023-04-25T13:28:16.215Z,4.97
2023-04-25T13:30:45.061Z,5.30
2023-04-25T13:33:14.980Z,4.73
2023-04-25T13:35:44.393Z,5.70
2023-04-25T13:38:13.158Z,8.27
2023-04-25T13:40:41.819Z,5.67
2023-04-25T13:43:10.424Z,9.20
2023-04-25T13:45:39.130Z,5.20
2023-04-25T13:48:08.097Z,5.47
2023-04-25T13:50:38.094Z,8.97
2023-04-25T13:53:06.810Z,7.03
2023-04-25T13:55:36.337Z,5.67
2023-04-25T13:58:08.523Z,7.97
2023-04-25T14:00:39.450Z,8.07
2023-04-25T14:03:09.445Z,8.20
2023-04-25T14:05:40.379Z,5.00
2023-04-25T14:08:10.378Z,6.37
2023-04-25T14:10:39.300Z,6.17
2023-04-25T14:13:10.211Z,5.70
2023-04-25T14:15:39.655Z,7.93
2023-04-25T14:18:08.430Z,5.60
2023-04-25T14:20:37.110Z,6.47
2023-04-25T14:23:07.262Z,6.50
2023-04-25T14:25:36.686Z,9.07
2023-04-25T14:28:05.605Z,7.13
2023-04-25T14:30:34.343Z,6.33
2023-04-25T14:33:02.975Z,9.43
2023-04-25T14:35:31.883Z,7.70
2023-04-25T14:38:00.519Z,7.83
2023-04-25T14:40:30.569Z,7.00
2023-04-25T14:42:59.318Z,7.87
2023-04-25T14:45:28.058Z,8.83
2023-04-25T14:47:56.913Z,5.67
2023-04-25T14:50:25.706Z,8.27
2023-04-25T14:52:54.377Z,7.07
2023-04-25T14:55:23.008Z,13.17
2023-04-25T14:57:53.007Z,7.67
2023-04-25T15:00:23.011Z,6.33
2023-04-25T15:02:51.816Z,6.70
2023-04-25T15:05:21.056Z,7.03
2023-04-25T15:07:49.797Z,7.33
2023-04-25T15:10:19.187Z,8.60
2023-04-25T15:12:48.199Z,7.40
2023-04-25T15:15:26.019Z,11.00
2023-04-25T15:17:58.782Z,9.90
2023-04-25T15:20:28.589Z,7.90
2023-04-25T15:22:57.469Z,6.73
2023-04-25T15:25:26.342Z,5.70
2023-04-25T15:27:55.811Z,5.23
2023-04-25T15:30:25.874Z,10.00
2023-04-25T15:32:54.523Z,9.53
2023-04-25T15:35:23.246Z,4.87
2023-04-25T15:37:52.374Z,4.20
2023-04-25T15:40:21.190Z,5.47
2023-04-25T15:42:51.733Z,8.10
2023-04-25T15:45:21.560Z,7.27
2023-04-25T15:47:52.886Z,9.73
2023-04-25T15:50:22.217Z,7.60
2023-04-25T15:52:51.300Z,8.43
2023-04-25T15:55:21.552Z,6.13
2023-04-25T15:57:51.098Z,5.77
2023-04-25T16:00:22.033Z,8.93
2023-04-25T16:02:52.732Z,5.63
2023-04-25T16:05:21.532Z,6.13
2023-04-25T16:07:53.548Z,5.47
2023-04-25T16:10:22.373Z,6.70
2023-04-25T16:12:51.426Z,6.03
2023-04-25T16:15:20.117Z,6.90
2023-04-25T16:17:48.762Z,5.67
2023-04-25T16:20:18.877Z,7.27
2023-04-25T16:22:47.652Z,6.33
2023-04-25T16:25:16.255Z,7.30
2023-04-25T16:27:44.868Z,6.80
2023-04-25T16:30:14.144Z,9.07
2023-04-25T16:32:45.279Z,11.20
2023-04-25T16:35:14.193Z,7.77
2023-04-25T16:37:44.557Z,7.60
2023-04-25T16:40:13.824Z,5.30
2023-04-25T16:42:42.483Z,5.67
2023-04-25T16:45:12.271Z,7.03
2023-04-25T16:47:41.005Z,7.03
2023-04-25T16:50:10.346Z,10.73
2023-04-25T16:52:38.998Z,6.40
2023-04-25T16:55:10.382Z,6.43
2023-04-25T16:57:39.208Z,6.80
2023-04-25T17:00:10.450Z,12.90
2023-04-25T17:02:39.196Z,13.83
2023-04-25T17:05:08.814Z,7.83
2023-04-25T17:07:37.508Z,6.03
2023-04-25T17:10:06.959Z,6.70
2023-04-25T17:12:37.476Z,9.30
2023-04-25T17:15:07.263Z,6.53
2023-04-25T17:17:35.984Z,9.10
2023-04-25T17:20:06.789Z,8.20
2023-04-25T17:22:36.020Z,7.57
2023-04-25T17:25:04.867Z,7.70
2023-04-25T17:27:33.542Z,7.63
2023-04-25T17:30:04.103Z,10.10
2023-04-25T17:32:32.720Z,6.27
2023-04-25T17:35:01.405Z,7.00
2023-04-25T17:37:30.119Z,7.93
2023-04-25T17:39:58.749Z,7.53
2023-04-25T17:42:28.060Z,7.03
2023-04-25T17:44:56.692Z,6.73
2023-04-25T17:47:26.824Z,5.30
2023-04-25T17:49:56.508Z,6.27
2023-04-25T17:52:25.651Z,5.53
2023-04-25T17:54:54.344Z,7.83
2023-04-25T17:57:24.328Z,8.03
2023-04-25T17:59:53.419Z,8.37
2023-04-25T18:02:22.489Z,7.90
2023-04-25T18:04:52.790Z,6.97
2023-04-25T18:07:21.476Z,6.93
2023-04-25T18:09:50.084Z,10.80
2023-04-25T18:12:18.743Z,7.70
2023-04-25T18:14:47.501Z,11.90
2023-04-25T18:17:17.178Z,8.53
2023-04-25T18:19:46.453Z,6.53
2023-04-25T18:22:17.034Z,8.83
2023-04-25T18:24:46.309Z,9.63
2023-04-25T18:27:15.083Z,5.70
2023-04-25T18:29:45.474Z,7.63
2023-04-25T18:32:14.383Z,3.73
2023-04-25T18:34:46.040Z,5.70
2023-04-25T18:37:16.067Z,6.77
2023-04-25T18:39:44.713Z,4.83
2023-04-25T18:42:13.797Z,6.47
2023-04-25T18:44:42.674Z,6.87
2023-04-25T18:47:13.015Z,7.77
2023-04-25T18:49:41.688Z,4.33
2023-04-25T18:52:12.226Z,5.70
2023-04-25T18:54:42.604Z,9.95
2023-04-25T18:57:14.531Z,5.60
2023-04-25T18:59:44.300Z,5.83
2023-04-25T19:02:13.233Z,6.20
2023-04-25T19:04:42.032Z,16.30
2023-04-25T19:07:10.778Z,9.73
2023-04-25T19:09:39.485Z,8.63
2023-04-25T19:12:09.938Z,11.90
2023-04-25T19:14:38.625Z,7.33
2023-04-25T19:17:07.409Z,9.93
2023-04-25T19:19:36.213Z,7.97
2023-04-25T19:22:04.869Z,16.00
2023-04-25T19:24:34.640Z,12.30
2023-04-25T19:27:03.955Z,6.83
2023-04-25T19:29:34.465Z,6.60
2023-04-25T19:32:03.424Z,9.37
2023-04-25T19:34:32.095Z,15.53
2023-04-25T19:37:00.717Z,16.30
2023-04-25T19:39:29.844Z,11.60
2023-04-25T19:41:59.338Z,12.13
2023-04-25T19:44:28.421Z,15.68
2023-04-25T19:46:59.616Z,21.30
2023-04-25T19:49:28.405Z,24.97
2023-04-25T19:51:57.068Z,26.57
2023-04-25T19:54:25.741Z,19.33
2023-04-25T19:56:54.713Z,17.53
2023-04-25T19:59:23.283Z,15.07
2023-04-25T20:01:52.032Z,17.43
2023-04-25T20:04:22.179Z,16.97
2023-04-25T20:06:50.977Z,19.03
2023-04-25T20:09:20.853Z,17.70
2023-04-25T20:11:49.616Z,16.07
2023-04-25T20:14:18.194Z,14.50
2023-04-25T20:16:47.749Z,15.00
2023-04-25T20:19:16.442Z,12.10
2023-04-25T20:21:46.427Z,14.43
2023-04-25T20:24:15.098Z,10.70
2023-04-25T20:26:43.762Z,11.43
2023-04-25T20:29:12.519Z,16.83
2023-04-25T20:31:42.405Z,13.30
2023-04-25T20:34:11.130Z,15.37
2023-04-25T20:36:40.274Z,11.53
2023-04-25T20:39:10.355Z,10.23
2023-04-25T20:41:40.325Z,9.70
2023-04-25T20:44:09.392Z,15.70
2023-04-25T20:46:38.063Z,14.00
2023-04-25T20:49:07.701Z,16.50
2023-04-25T20:51:37.048Z,11.83
2023-04-25T20:54:05.700Z,17.00
2023-04-25T20:56:35.705Z,16.00
2023-04-25T20:59:04.524Z,11.43
2023-04-25T21:01:33.221Z,13.23
2023-04-25T21:04:02.139Z,16.63
2023-04-25T21:06:31.265Z,17.30
2023-04-25T21:08:59.877Z,12.47
2023-04-25T21:11:28.722Z,13.53
2023-04-25T21:13:58.798Z,13.10
2023-04-25T21:16:27.527Z,15.13
2023-04-25T21:18:56.233Z,14.23
2023-04-25T21:21:24.977Z,12.70
2023-04-25T21:23:53.688Z,13.00
2023-04-25T21:26:22.418Z,13.33
2023-04-25T21:28:51.332Z,15.13
2023-04-25T21:31:21.501Z,13.87
2023-04-25T21:33:50.315Z,13.83
2023-04-25T21:36:18.946Z,17.47
2023-04-25T21:38:47.592Z,13.30
2023-04-25T21:41:16.467Z,12.10
2023-04-25T21:43:45.207Z,15.60
2023-04-25T21:48:46.803Z,13.10
2023-04-25T21:51:15.462Z,14.63
2023-04-25T21:53:44.110Z,14.80
2023-04-25T21:56:12.951Z,19.53
2023-04-25T21:58:41.617Z,12.97
2023-04-25T22:01:10.448Z,16.13
2023-04-25T22:03:39.196Z,13.10
2023-04-25T22:06:09.289Z,13.90
2023-04-25T22:08:38.330Z,20.10
2023-04-25T22:11:08.393Z,14.53
2023-04-25T22:13:37.028Z,18.63
2023-04-25T22:16:06.394Z,13.70
2023-04-25T22:18:36.316Z,19.20
2023-04-25T22:21:05.159Z,14.67
2023-04-25T22:23:35.122Z,16.30
2023-04-25T22:26:04.011Z,19.13
2023-04-25T22:28:33.065Z,14.70
2023-04-25T22:31:02.372Z,14.13
2023-04-25T22:33:33.363Z,14.53
2023-04-25T22:36:02.106Z,13.10
2023-04-25T22:38:30.921Z,12.53
2023-04-25T22:41:00.909Z,20.30
2023-04-25T22:43:29.914Z,16.23
2023-04-25T22:45:59.694Z,14.77
2023-04-25T22:48:28.237Z,13.73
2023-04-25T22:51:02.830Z,12.07
2023-04-25T22:53:34.058Z,13.87
2023-04-25T22:56:04.340Z,13.30
2023-04-25T22:58:33.095Z,16.70
2023-04-25T23:01:01.743Z,18.43
2023-04-25T23:03:32.654Z,16.30
2023-04-25T23:06:01.420Z,17.33
2023-04-25T23:08:30.456Z,14.83
2023-04-25T23:10:59.112Z,15.23
2023-04-25T23:13:29.090Z,11.87
2023-04-25T23:15:57.985Z,14.50
2023-04-25T23:18:26.587Z,18.37
2023-04-25T23:20:55.247Z,18.03
2023-04-25T23:23:23.800Z,14.30
2023-04-25T23:25:52.432Z,16.00
2023-04-25T23:28:21.413Z,14.97
2023-04-25T23:30:51.388Z,18.37
2023-04-25T23:33:20.091Z,13.97
2023-04-25T23:35:48.661Z,17.20
2023-04-25T23:38:17.668Z,18.03
2023-04-25T23:40:46.361Z,16.73
2023-04-25T23:43:15.752Z,17.40
2023-04-25T23:45:46.178Z,20.87
2023-04-25T23:48:16.867Z,15.53
2023-04-25T23:50:45.541Z,15.40
2023-04-25T23:53:14.132Z,21.27
2023-04-25T23:55:43.013Z,14.47
2023-04-25T23:58:11.662Z,18.60
